sensor_id;sensor_type;location;lat;lon;timestamp;pressure;altitude;pressure_sealevel;temperature;humidity
80781;BME280;70341;56.408;10.874;2023-08-30T00:00:14;100848.30;;;14.54;70.43
80781;BME280;70341;56.408;10.874;2023-08-30T00:03:04;100847.81;;;14.50;70.58
80781;BME280;70341;56.408;10.874;2023-08-30T00:05:39;100843.24;;;14.52;70.73
80781;BME280;70341;56.408;10.874;2023-08-30T00:08:09;100839.02;;;14.51;70.00
80781;BME280;70341;56.408;10.874;2023-08-30T00:10:40;100835.48;;;14.43;69.74
80781;BME280;70341;56.408;10.874;2023-08-30T00:13:12;100833.22;;;14.35;70.03
80781;BME280;70341;56.408;10.874;2023-08-30T00:15:42;100827.09;;;14.30;70.16
80781;BME280;70341;56.408;10.874;2023-08-30T00:18:12;100829.27;;;14.32;70.53
80781;BME280;70341;56.408;10.874;2023-08-30T00:20:40;100826.11;;;14.31;70.69
80781;BME280;70341;56.408;10.874;2023-08-30T00:23:11;100826.22;;;14.29;71.29
80781;BME280;70341;56.408;10.874;2023-08-30T00:25:40;100819.77;;;14.26;71.01
80781;BME280;70341;56.408;10.874;2023-08-30T00:28:11;100819.48;;;14.25;70.83
80781;BME280;70341;56.408;10.874;2023-08-30T00:30:40;100818.59;;;14.25;70.99
80781;BME280;70341;56.408;10.874;2023-08-30T00:33:12;100815.27;;;14.23;71.26
80781;BME280;70341;56.408;10.874;2023-08-30T00:35:41;100825.70;;;14.29;71.21
80781;BME280;70341;56.408;10.874;2023-08-30T00:38:10;100826.24;;;14.32;71.32
80781;BME280;70341;56.408;10.874;2023-08-30T00:40:40;100825.67;;;14.33;71.16
80781;BME280;70341;56.408;10.874;2023-08-30T00:43:09;100828.75;;;14.35;71.29
80781;BME280;70341;56.408;10.874;2023-08-30T00:45:40;100830.40;;;14.38;71.21
80781;BME280;70341;56.408;10.874;2023-08-30T00:48:11;100828.05;;;14.38;71.33
80781;BME280;70341;56.408;10.874;2023-08-30T00:50:41;100824.54;;;14.34;70.50
80781;BME280;70341;56.408;10.874;2023-08-30T00:53:12;100824.38;;;14.27;70.54
80781;BME280;70341;56.408;10.874;2023-08-30T00:55:42;100825.66;;;14.20;71.30
80781;BME280;70341;56.408;10.874;2023-08-30T00:58:13;100821.11;;;14.14;71.49
80781;BME280;70341;56.408;10.874;2023-08-30T01:00:42;100819.28;;;14.12;71.43
80781;BME280;70341;56.408;10.874;2023-08-30T01:03:12;100814.91;;;14.10;71.74
80781;BME280;70341;56.408;10.874;2023-08-30T01:05:43;100813.00;;;14.09;72.10
80781;BME280;70341;56.408;10.874;2023-08-30T01:08:14;100810.42;;;14.11;72.52
80781;BME280;70341;56.408;10.874;2023-08-30T01:11:22;100808.25;;;14.11;72.64
80781;BME280;70341;56.408;10.874;2023-08-30T01:14:16;100803.05;;;14.14;71.86
80781;BME280;70341;56.408;10.874;2023-08-30T01:16:48;100807.02;;;14.17;72.02
80781;BME280;70341;56.408;10.874;2023-08-30T01:22:38;100794.56;;;14.13;71.46
80781;BME280;70341;56.408;10.874;2023-08-30T01:25:16;100793.89;;;14.09;71.15
80781;BME280;70341;56.408;10.874;2023-08-30T01:27:50;100791.02;;;14.05;70.96
80781;BME280;70341;56.408;10.874;2023-08-30T01:30:21;100792.11;;;14.02;71.03
80781;BME280;70341;56.408;10.874;2023-08-30T01:32:59;100788.33;;;13.99;71.15
80781;BME280;70341;56.408;10.874;2023-08-30T01:35:30;100788.50;;;14.00;71.29
80781;BME280;70341;56.408;10.874;2023-08-30T01:38:05;100785.60;;;14.00;70.89
80781;BME280;70341;56.408;10.874;2023-08-30T01:40:44;100783.96;;;13.98;71.00
80781;BME280;70341;56.408;10.874;2023-08-30T01:43:17;100771.21;;;13.89;70.76
80781;BME280;70341;56.408;10.874;2023-08-30T01:45:46;100779.38;;;13.93;70.49
80781;BME280;70341;56.408;10.874;2023-08-30T01:48:19;100779.16;;;13.90;70.92
80781;BME280;70341;56.408;10.874;2023-08-30T01:50:50;100776.84;;;13.87;71.23
80781;BME280;70341;56.408;10.874;2023-08-30T01:53:21;100770.89;;;13.85;71.02
80781;BME280;70341;56.408;10.874;2023-08-30T01:55:51;100770.61;;;13.83;70.71
80781;BME280;70341;56.408;10.874;2023-08-30T01:58:20;100769.23;;;13.82;70.83
80781;BME280;70341;56.408;10.874;2023-08-30T02:00:49;100767.83;;;13.82;71.08
80781;BME280;70341;56.408;10.874;2023-08-30T02:03:19;100768.70;;;13.82;70.90
80781;BME280;70341;56.408;10.874;2023-08-30T02:06:11;100769.13;;;13.81;70.69
80781;BME280;70341;56.408;10.874;2023-08-30T02:09:03;100769.69;;;13.77;70.49
80781;BME280;70341;56.408;10.874;2023-08-30T02:11:35;100776.92;;;13.72;70.56
80781;BME280;70341;56.408;10.874;2023-08-30T02:14:10;100774.54;;;13.66;70.88
80781;BME280;70341;56.408;10.874;2023-08-30T02:16:42;100782.15;;;13.68;70.94
80781;BME280;70341;56.408;10.874;2023-08-30T02:19:13;100783.68;;;13.65;71.18
80781;BME280;70341;56.408;10.874;2023-08-30T02:21:43;100783.05;;;13.64;70.84
80781;BME280;70341;56.408;10.874;2023-08-30T02:24:12;100783.74;;;13.64;71.15
80781;BME280;70341;56.408;10.874;2023-08-30T02:26:44;100781.81;;;13.64;71.25
80781;BME280;70341;56.408;10.874;2023-08-30T02:29:13;100779.05;;;13.62;71.36
80781;BME280;70341;56.408;10.874;2023-08-30T02:31:43;100777.31;;;13.61;71.05
80781;BME280;70341;56.408;10.874;2023-08-30T02:34:11;100783.80;;;13.60;70.90
80781;BME280;70341;56.408;10.874;2023-08-30T02:36:44;100781.91;;;13.58;70.95
80781;BME280;70341;56.408;10.874;2023-08-30T02:39:14;100773.05;;;13.57;70.73
80781;BME280;70341;56.408;10.874;2023-08-30T02:41:45;100765.70;;;13.54;71.11
80781;BME280;70341;56.408;10.874;2023-08-30T02:44:13;100765.73;;;13.57;71.12
80781;BME280;70341;56.408;10.874;2023-08-30T02:46:45;100766.75;;;13.55;70.48
80781;BME280;70341;56.408;10.874;2023-08-30T02:49:14;100764.85;;;13.50;70.79
80781;BME280;70341;56.408;10.874;2023-08-30T02:51:45;100763.48;;;13.46;70.80
80781;BME280;70341;56.408;10.874;2023-08-30T02:54:14;100763.54;;;13.45;71.19
80781;BME280;70341;56.408;10.874;2023-08-30T02:56:45;100764.67;;;13.44;71.14
80781;BME280;70341;56.408;10.874;2023-08-30T02:59:15;100770.15;;;13.44;71.47
80781;BME280;70341;56.408;10.874;2023-08-30T03:01:44;100773.15;;;13.42;71.39
80781;BME280;70341;56.408;10.874;2023-08-30T03:04:15;100775.48;;;13.38;71.48
80781;BME280;70341;56.408;10.874;2023-08-30T03:06:46;100770.30;;;13.31;71.31
80781;BME280;70341;56.408;10.874;2023-08-30T03:09:15;100773.02;;;13.30;71.73
80781;BME280;70341;56.408;10.874;2023-08-30T03:11:47;100771.80;;;13.30;71.93
80781;BME280;70341;56.408;10.874;2023-08-30T03:14:17;100775.92;;;13.29;71.70
80781;BME280;70341;56.408;10.874;2023-08-30T03:16:48;100777.13;;;13.26;71.52
80781;BME280;70341;56.408;10.874;2023-08-30T03:19:17;100783.91;;;13.26;71.92
80781;BME280;70341;56.408;10.874;2023-08-30T03:21:47;100781.29;;;13.25;71.65
80781;BME280;70341;56.408;10.874;2023-08-30T03:24:16;100779.04;;;13.20;71.97
80781;BME280;70341;56.408;10.874;2023-08-30T03:26:46;100783.34;;;13.20;72.00
80781;BME280;70341;56.408;10.874;2023-08-30T03:29:15;100783.77;;;13.19;72.14
80781;BME280;70341;56.408;10.874;2023-08-30T03:31:47;100777.70;;;13.15;72.07
80781;BME280;70341;56.408;10.874;2023-08-30T03:34:16;100783.36;;;13.16;71.71
80781;BME280;70341;56.408;10.874;2023-08-30T03:36:48;100782.21;;;13.13;71.40
80781;BME280;70341;56.408;10.874;2023-08-30T03:39:17;100780.20;;;13.07;70.41
80781;BME280;70341;56.408;10.874;2023-08-30T03:41:47;100784.55;;;12.98;70.05
80781;BME280;70341;56.408;10.874;2023-08-30T03:44:16;100778.31;;;12.88;70.46
80781;BME280;70341;56.408;10.874;2023-08-30T03:46:46;100781.57;;;12.83;70.65
80781;BME280;70341;56.408;10.874;2023-08-30T03:49:15;100773.71;;;12.76;70.28
80781;BME280;70341;56.408;10.874;2023-08-30T03:51:46;100770.09;;;12.70;70.60
80781;BME280;70341;56.408;10.874;2023-08-30T03:54:16;100764.89;;;12.67;71.24
80781;BME280;70341;56.408;10.874;2023-08-30T03:56:46;100763.08;;;12.64;70.54
80781;BME280;70341;56.408;10.874;2023-08-30T03:59:15;100759.11;;;12.61;70.94
80781;BME280;70341;56.408;10.874;2023-08-30T04:01:45;100756.86;;;12.56;70.83
80781;BME280;70341;56.408;10.874;2023-08-30T04:04:15;100754.92;;;12.52;70.73
80781;BME280;70341;56.408;10.874;2023-08-30T04:06:45;100757.17;;;12.49;70.81
80781;BME280;70341;56.408;10.874;2023-08-30T04:09:14;100754.80;;;12.47;70.83
80781;BME280;70341;56.408;10.874;2023-08-30T04:11:44;100758.57;;;12.43;70.77
80781;BME280;70341;56.408;10.874;2023-08-30T04:14:12;100757.60;;;12.44;71.39
80781;BME280;70341;56.408;10.874;2023-08-30T04:16:42;100760.14;;;12.47;71.14
80781;BME280;70341;56.408;10.874;2023-08-30T04:19:11;100753.41;;;12.46;70.87
80781;BME280;70341;56.408;10.874;2023-08-30T04:21:41;100753.86;;;12.48;70.99
80781;BME280;70341;56.408;10.874;2023-08-30T04:24:10;100754.73;;;12.48;71.17
80781;BME280;70341;56.408;10.874;2023-08-30T04:26:41;100752.60;;;12.48;70.95
80781;BME280;70341;56.408;10.874;2023-08-30T04:29:12;100753.08;;;12.49;71.09
80781;BME280;70341;56.408;10.874;2023-08-30T04:31:43;100747.68;;;12.51;70.89
80781;BME280;70341;56.408;10.874;2023-08-30T04:34:12;100745.70;;;12.51;71.08
80781;BME280;70341;56.408;10.874;2023-08-30T04:36:42;100739.77;;;12.52;71.12
80781;BME280;70341;56.408;10.874;2023-08-30T04:39:12;100744.31;;;12.61;71.40
80781;BME280;70341;56.408;10.874;2023-08-30T04:41:43;100739.45;;;12.66;71.43
80781;BME280;70341;56.408;10.874;2023-08-30T04:44:13;100733.41;;;12.69;71.15
80781;BME280;70341;56.408;10.874;2023-08-30T04:46:42;100738.52;;;12.74;71.14
80781;BME280;70341;56.408;10.874;2023-08-30T04:49:12;100737.44;;;12.78;71.30
80781;BME280;70341;56.408;10.874;2023-08-30T04:51:42;100737.17;;;12.83;71.51
80781;BME280;70341;56.408;10.874;2023-08-30T04:54:10;100743.10;;;12.89;71.52
80781;BME280;70341;56.408;10.874;2023-08-30T04:56:42;100735.61;;;12.93;71.15
80781;BME280;70341;56.408;10.874;2023-08-30T04:59:12;100741.98;;;13.01;70.64
80781;BME280;70341;56.408;10.874;2023-08-30T05:01:41;100744.47;;;13.08;70.46
80781;BME280;70341;56.408;10.874;2023-08-30T05:04:11;100739.05;;;13.13;70.84
80781;BME280;70341;56.408;10.874;2023-08-30T05:06:40;100735.36;;;13.20;71.38
80781;BME280;70341;56.408;10.874;2023-08-30T05:09:09;100734.11;;;13.26;71.34
80781;BME280;70341;56.408;10.874;2023-08-30T05:11:39;100728.92;;;13.31;71.09
80781;BME280;70341;56.408;10.874;2023-08-30T05:14:08;100732.05;;;13.35;71.06
80781;BME280;70341;56.408;10.874;2023-08-30T05:16:38;100729.48;;;13.41;70.98
80781;BME280;70341;56.408;10.874;2023-08-30T05:19:07;100725.91;;;13.47;70.76
80781;BME280;70341;56.408;10.874;2023-08-30T05:21:37;100721.70;;;13.53;70.20
80781;BME280;70341;56.408;10.874;2023-08-30T05:24:08;100718.59;;;13.57;70.26
80781;BME280;70341;56.408;10.874;2023-08-30T05:26:38;100720.25;;;13.63;70.39
80781;BME280;70341;56.408;10.874;2023-08-30T05:29:06;100718.64;;;13.66;70.33
80781;BME280;70341;56.408;10.874;2023-08-30T05:31:37;100716.42;;;13.68;70.26
80781;BME280;70341;56.408;10.874;2023-08-30T05:34:07;100714.17;;;13.70;70.28
80781;BME280;70341;56.408;10.874;2023-08-30T05:36:38;100712.77;;;13.76;70.49
80781;BME280;70341;56.408;10.874;2023-08-30T05:39:07;100712.52;;;13.84;70.61
80781;BME280;70341;56.408;10.874;2023-08-30T05:41:39;100717.02;;;13.99;70.33
80781;BME280;70341;56.408;10.874;2023-08-30T05:44:08;100720.05;;;14.13;70.43
80781;BME280;70341;56.408;10.874;2023-08-30T05:46:37;100720.00;;;14.30;70.00
80781;BME280;70341;56.408;10.874;2023-08-30T05:49:08;100720.25;;;14.45;69.99
80781;BME280;70341;56.408;10.874;2023-08-30T05:51:38;100713.36;;;14.59;69.94
80781;BME280;70341;56.408;10.874;2023-08-30T05:54:08;100721.40;;;14.81;69.94
80781;BME280;70341;56.408;10.874;2023-08-30T05:56:38;100722.94;;;15.04;70.20
80781;BME280;70341;56.408;10.874;2023-08-30T05:59:07;100715.67;;;15.26;69.84
80781;BME280;70341;56.408;10.874;2023-08-30T06:01:36;100721.20;;;15.53;69.72
80781;BME280;70341;56.408;10.874;2023-08-30T06:04:05;100714.10;;;15.79;69.53
80781;BME280;70341;56.408;10.874;2023-08-30T06:06:34;100710.70;;;16.02;69.17
80781;BME280;70341;56.408;10.874;2023-08-30T06:09:03;100706.30;;;16.26;68.97
80781;BME280;70341;56.408;10.874;2023-08-30T06:11:33;100702.27;;;16.44;68.65
80781;BME280;70341;56.408;10.874;2023-08-30T06:14:01;100704.10;;;16.57;68.77
80781;BME280;70341;56.408;10.874;2023-08-30T06:16:31;100702.20;;;16.70;68.63
80781;BME280;70341;56.408;10.874;2023-08-30T06:18:59;100702.65;;;16.85;68.61
80781;BME280;70341;56.408;10.874;2023-08-30T06:21:29;100710.41;;;17.03;68.52
80781;BME280;70341;56.408;10.874;2023-08-30T06:23:57;100701.65;;;17.16;68.25
80781;BME280;70341;56.408;10.874;2023-08-30T06:26:27;100703.95;;;17.31;68.77
80781;BME280;70341;56.408;10.874;2023-08-30T06:28:56;100698.31;;;17.43;68.63
80781;BME280;70341;56.408;10.874;2023-08-30T06:31:34;100696.12;;;17.54;68.41
80781;BME280;70341;56.408;10.874;2023-08-30T06:34:03;100699.90;;;17.64;67.87
80781;BME280;70341;56.408;10.874;2023-08-30T06:36:34;100696.97;;;17.73;67.60
80781;BME280;70341;56.408;10.874;2023-08-30T06:39:03;100696.16;;;17.82;67.75
80781;BME280;70341;56.408;10.874;2023-08-30T06:41:34;100691.98;;;17.95;67.35
80781;BME280;70341;56.408;10.874;2023-08-30T06:44:05;100690.61;;;18.14;67.60
80781;BME280;70341;56.408;10.874;2023-08-30T06:46:35;100689.86;;;18.34;67.75
80781;BME280;70341;56.408;10.874;2023-08-30T06:49:06;100685.50;;;18.57;67.46
80781;BME280;70341;56.408;10.874;2023-08-30T06:51:35;100689.38;;;18.79;66.69
80781;BME280;70341;56.408;10.874;2023-08-30T06:54:04;100696.05;;;19.06;66.61
80781;BME280;70341;56.408;10.874;2023-08-30T06:56:33;100695.05;;;19.33;66.10
80781;BME280;70341;56.408;10.874;2023-08-30T06:59:02;100700.81;;;19.56;65.15
80781;BME280;70341;56.408;10.874;2023-08-30T07:01:32;100695.53;;;19.66;64.85
80781;BME280;70341;56.408;10.874;2023-08-30T07:04:04;100704.13;;;19.81;64.25
80781;BME280;70341;56.408;10.874;2023-08-30T07:06:34;100702.50;;;19.90;63.62
80781;BME280;70341;56.408;10.874;2023-08-30T07:09:03;100706.97;;;19.97;63.66
80781;BME280;70341;56.408;10.874;2023-08-30T07:11:35;100706.20;;;20.02;63.04
80781;BME280;70341;56.408;10.874;2023-08-30T07:14:04;100703.98;;;20.16;62.70
80781;BME280;70341;56.408;10.874;2023-08-30T07:16:34;100708.61;;;20.37;62.87
80781;BME280;70341;56.408;10.874;2023-08-30T07:19:03;100713.53;;;20.65;63.19
80781;BME280;70341;56.408;10.874;2023-08-30T07:21:33;100713.30;;;21.00;62.37
80781;BME280;70341;56.408;10.874;2023-08-30T07:24:06;100703.70;;;21.37;61.80
80781;BME280;70341;56.408;10.874;2023-08-30T07:26:37;100705.75;;;21.65;60.41
80781;BME280;70341;56.408;10.874;2023-08-30T07:29:06;100708.96;;;21.85;58.28
80781;BME280;70341;56.408;10.874;2023-08-30T07:31:37;100712.23;;;22.01;57.87
80781;BME280;70341;56.408;10.874;2023-08-30T07:34:08;100706.68;;;22.06;57.43
80781;BME280;70341;56.408;10.874;2023-08-30T07:36:39;100707.52;;;22.09;55.88
80781;BME280;70341;56.408;10.874;2023-08-30T07:39:17;100717.24;;;22.08;55.42
80781;BME280;70341;56.408;10.874;2023-08-30T07:41:47;100720.67;;;22.03;55.11
80781;BME280;70341;56.408;10.874;2023-08-30T07:44:17;100716.81;;;21.94;54.46
80781;BME280;70341;56.408;10.874;2023-08-30T07:46:46;100718.05;;;21.84;55.06
80781;BME280;70341;56.408;10.874;2023-08-30T07:49:17;100718.46;;;21.82;55.42
80781;BME280;70341;56.408;10.874;2023-08-30T07:51:45;100717.00;;;21.77;54.65
80781;BME280;70341;56.408;10.874;2023-08-30T07:54:16;100711.02;;;21.75;54.42
80781;BME280;70341;56.408;10.874;2023-08-30T07:56:45;100710.19;;;21.71;54.75
80781;BME280;70341;56.408;10.874;2023-08-30T07:59:15;100711.58;;;21.63;53.75
80781;BME280;70341;56.408;10.874;2023-08-30T08:01:46;100712.56;;;21.60;53.29
80781;BME280;70341;56.408;10.874;2023-08-30T08:04:17;100710.39;;;21.58;53.44
80781;BME280;70341;56.408;10.874;2023-08-30T08:06:48;100708.71;;;21.61;52.94
80781;BME280;70341;56.408;10.874;2023-08-30T08:09:26;100708.63;;;21.60;52.54
80781;BME280;70341;56.408;10.874;2023-08-30T08:11:56;100704.29;;;21.55;53.15
80781;BME280;70341;56.408;10.874;2023-08-30T08:14:25;100711.67;;;21.60;53.21
80781;BME280;70341;56.408;10.874;2023-08-30T08:16:54;100715.60;;;21.63;52.35
80781;BME280;70341;56.408;10.874;2023-08-30T08:19:25;100710.39;;;21.70;52.73
80781;BME280;70341;56.408;10.874;2023-08-30T08:21:54;100707.09;;;21.98;53.14
80781;BME280;70341;56.408;10.874;2023-08-30T08:24:24;100710.95;;;22.42;52.68
80781;BME280;70341;56.408;10.874;2023-08-30T08:26:54;100710.15;;;22.76;51.54
80781;BME280;70341;56.408;10.874;2023-08-30T08:29:27;100712.77;;;23.05;50.23
80781;BME280;70341;56.408;10.874;2023-08-30T08:31:56;100712.16;;;23.23;49.21
80781;BME280;70341;56.408;10.874;2023-08-30T08:34:27;100707.37;;;23.39;48.41
80781;BME280;70341;56.408;10.874;2023-08-30T08:36:55;100705.38;;;23.56;47.10
80781;BME280;70341;56.408;10.874;2023-08-30T08:39:25;100707.30;;;23.71;46.66
80781;BME280;70341;56.408;10.874;2023-08-30T08:41:54;100711.45;;;23.84;46.08
80781;BME280;70341;56.408;10.874;2023-08-30T08:44:26;100705.89;;;24.08;44.96
80781;BME280;70341;56.408;10.874;2023-08-30T08:47:01;100709.85;;;24.23;43.93
80781;BME280;70341;56.408;10.874;2023-08-30T08:49:30;100713.16;;;24.28;43.66
80781;BME280;70341;56.408;10.874;2023-08-30T08:52:01;100709.98;;;24.31;43.87
80781;BME280;70341;56.408;10.874;2023-08-30T08:54:45;100705.61;;;24.12;44.17
80781;BME280;70341;56.408;10.874;2023-08-30T08:57:13;100706.52;;;23.90;44.35
80781;BME280;70341;56.408;10.874;2023-08-30T08:59:45;100707.96;;;23.66;45.27
80781;BME280;70341;56.408;10.874;2023-08-30T09:02:15;100711.00;;;23.43;45.88
80781;BME280;70341;56.408;10.874;2023-08-30T09:04:45;100709.90;;;23.20;46.11
80781;BME280;70341;56.408;10.874;2023-08-30T09:07:14;100710.25;;;23.07;46.57
80781;BME280;70341;56.408;10.874;2023-08-30T09:09:45;100708.70;;;23.04;46.33
80781;BME280;70341;56.408;10.874;2023-08-30T09:12:14;100711.27;;;23.02;46.35
80781;BME280;70341;56.408;10.874;2023-08-30T09:14:54;100709.31;;;22.99;46.53
80781;BME280;70341;56.408;10.874;2023-08-30T09:17:35;100709.87;;;23.09;46.73
80781;BME280;70341;56.408;10.874;2023-08-30T09:20:12;100711.55;;;23.22;46.24
80781;BME280;70341;56.408;10.874;2023-08-30T09:22:43;100713.96;;;23.37;45.82
80781;BME280;70341;56.408;10.874;2023-08-30T09:25:24;100710.49;;;23.58;46.16
80781;BME280;70341;56.408;10.874;2023-08-30T09:28:00;100710.70;;;23.85;44.85
80781;BME280;70341;56.408;10.874;2023-08-30T09:30:29;100709.02;;;24.05;44.34
80781;BME280;70341;56.408;10.874;2023-08-30T09:33:03;100706.17;;;24.22;44.40
80781;BME280;70341;56.408;10.874;2023-08-30T09:35:43;100705.66;;;24.80;44.53
80781;BME280;70341;56.408;10.874;2023-08-30T09:38:19;100708.48;;;25.40;42.83
80781;BME280;70341;56.408;10.874;2023-08-30T09:40:51;100710.97;;;25.68;42.38
80781;BME280;70341;56.408;10.874;2023-08-30T09:43:32;100709.09;;;26.11;41.14
80781;BME280;70341;56.408;10.874;2023-08-30T09:46:04;100712.89;;;25.99;41.31
80781;BME280;70341;56.408;10.874;2023-08-30T09:48:33;100704.34;;;25.86;42.09
80781;BME280;70341;56.408;10.874;2023-08-30T09:51:03;100711.14;;;25.98;41.86
80781;BME280;70341;56.408;10.874;2023-08-30T09:53:43;100712.11;;;26.30;40.41
80781;BME280;70341;56.408;10.874;2023-08-30T09:56:35;100711.83;;;25.88;40.34
80781;BME280;70341;56.408;10.874;2023-08-30T09:59:04;100713.25;;;25.40;41.28
80781;BME280;70341;56.408;10.874;2023-08-30T10:01:34;100715.03;;;25.04;41.80
80781;BME280;70341;56.408;10.874;2023-08-30T10:04:04;100712.27;;;24.74;42.27
80781;BME280;70341;56.408;10.874;2023-08-30T10:06:38;100708.77;;;24.45;42.73
80781;BME280;70341;56.408;10.874;2023-08-30T10:09:08;100711.87;;;24.28;43.20
80781;BME280;70341;56.408;10.874;2023-08-30T10:11:39;100712.19;;;24.12;43.34
80781;BME280;70341;56.408;10.874;2023-08-30T10:14:08;100713.82;;;23.96;44.46
80781;BME280;70341;56.408;10.874;2023-08-30T10:16:51;100715.14;;;23.86;44.80
80781;BME280;70341;56.408;10.874;2023-08-30T10:19:31;100712.88;;;23.79;44.76
80781;BME280;70341;56.408;10.874;2023-08-30T10:22:07;100707.34;;;23.74;45.04
80781;BME280;70341;56.408;10.874;2023-08-30T10:24:55;100717.06;;;23.84;44.44
80781;BME280;70341;56.408;10.874;2023-08-30T10:27:45;100714.69;;;24.01;43.84
80781;BME280;70341;56.408;10.874;2023-08-30T10:30:19;100719.29;;;24.21;43.96
80781;BME280;70341;56.408;10.874;2023-08-30T10:32:49;100718.92;;;24.44;43.26
80781;BME280;70341;56.408;10.874;2023-08-30T10:35:19;100714.64;;;24.75;42.15
80781;BME280;70341;56.408;10.874;2023-08-30T10:37:59;100719.65;;;25.04;42.06
80781;BME280;70341;56.408;10.874;2023-08-30T10:40:29;100714.28;;;25.24;41.86
80781;BME280;70341;56.408;10.874;2023-08-30T10:43:03;100710.75;;;25.52;42.05
80781;BME280;70341;56.408;10.874;2023-08-30T10:45:34;100703.19;;;25.87;40.78
80781;BME280;70341;56.408;10.874;2023-08-30T10:48:05;100709.77;;;26.40;40.04
80781;BME280;70341;56.408;10.874;2023-08-30T10:50:35;100704.44;;;26.76;38.89
80781;BME280;70341;56.408;10.874;2023-08-30T10:53:12;100703.27;;;27.28;36.88
80781;BME280;70341;56.408;10.874;2023-08-30T10:56:11;100705.63;;;27.92;35.29
80781;BME280;70341;56.408;10.874;2023-08-30T10:58:43;100697.64;;;28.50;34.50
80781;BME280;70341;56.408;10.874;2023-08-30T11:01:12;100697.98;;;28.78;33.35
80781;BME280;70341;56.408;10.874;2023-08-30T11:03:42;100696.33;;;28.97;32.67
80781;BME280;70341;56.408;10.874;2023-08-30T11:06:14;100699.33;;;29.05;32.85
80781;BME280;70341;56.408;10.874;2023-08-30T11:08:44;100696.55;;;29.10;32.71
80781;BME280;70341;56.408;10.874;2023-08-30T11:11:13;100687.86;;;29.00;34.07
80781;BME280;70341;56.408;10.874;2023-08-30T11:13:43;100692.34;;;29.06;34.17
80781;BME280;70341;56.408;10.874;2023-08-30T11:16:12;100686.55;;;29.16;33.50
80781;BME280;70341;56.408;10.874;2023-08-30T11:18:43;100689.91;;;29.21;33.36
80781;BME280;70341;56.408;10.874;2023-08-30T11:21:13;100690.14;;;29.32;33.56
80781;BME280;70341;56.408;10.874;2023-08-30T11:23:45;100684.30;;;29.59;31.67
80781;BME280;70341;56.408;10.874;2023-08-30T11:26:13;100685.29;;;30.52;30.06
80781;BME280;70341;56.408;10.874;2023-08-30T11:28:44;100679.60;;;31.08;29.35
80781;BME280;70341;56.408;10.874;2023-08-30T11:31:25;100686.13;;;31.42;29.30
80781;BME280;70341;56.408;10.874;2023-08-30T11:33:58;100686.38;;;32.18;28.69
80781;BME280;70341;56.408;10.874;2023-08-30T11:36:30;100688.29;;;32.86;27.01
80781;BME280;70341;56.408;10.874;2023-08-30T11:39:00;100682.14;;;33.19;26.01
80781;BME280;70341;56.408;10.874;2023-08-30T11:41:31;100688.89;;;33.52;25.73
80781;BME280;70341;56.408;10.874;2023-08-30T11:44:01;100686.00;;;34.27;24.36
80781;BME280;70341;56.408;10.874;2023-08-30T11:46:30;100682.19;;;34.76;23.92
80781;BME280;70341;56.408;10.874;2023-08-30T11:48:59;100678.06;;;34.48;24.21
80781;BME280;70341;56.408;10.874;2023-08-30T11:51:29;100676.02;;;34.48;23.66
80781;BME280;70341;56.408;10.874;2023-08-30T11:53:59;100678.60;;;34.02;23.61
80781;BME280;70341;56.408;10.874;2023-08-30T11:56:30;100678.45;;;33.32;24.43
80781;BME280;70341;56.408;10.874;2023-08-30T11:59:01;100675.55;;;32.67;25.03
80781;BME280;70341;56.408;10.874;2023-08-30T12:01:32;100669.92;;;31.81;25.81
80781;BME280;70341;56.408;10.874;2023-08-30T12:04:11;100669.12;;;31.10;27.00
80781;BME280;70341;56.408;10.874;2023-08-30T12:06:42;100674.80;;;30.43;27.77
80781;BME280;70341;56.408;10.874;2023-08-30T12:09:12;100675.61;;;29.90;28.41
80781;BME280;70341;56.408;10.874;2023-08-30T12:11:42;100678.08;;;29.33;29.35
80781;BME280;70341;56.408;10.874;2023-08-30T12:14:11;100680.59;;;28.97;29.75
80781;BME280;70341;56.408;10.874;2023-08-30T12:16:43;100675.61;;;28.72;30.63
80781;BME280;70341;56.408;10.874;2023-08-30T12:19:12;100676.27;;;28.59;29.95
80781;BME280;70341;56.408;10.874;2023-08-30T12:21:47;100676.17;;;28.63;30.10
80781;BME280;70341;56.408;10.874;2023-08-30T12:24:19;100674.16;;;28.62;30.51
80781;BME280;70341;56.408;10.874;2023-08-30T12:26:48;100671.79;;;28.67;30.52
80781;BME280;70341;56.408;10.874;2023-08-30T12:29:19;100671.27;;;28.81;31.01
80781;BME280;70341;56.408;10.874;2023-08-30T12:31:48;100668.44;;;28.83;31.33
80781;BME280;70341;56.408;10.874;2023-08-30T12:34:20;100672.35;;;28.83;31.12
80781;BME280;70341;56.408;10.874;2023-08-30T12:36:50;100666.18;;;28.76;30.76
80781;BME280;70341;56.408;10.874;2023-08-30T12:39:21;100675.98;;;28.91;30.28
80781;BME280;70341;56.408;10.874;2023-08-30T12:41:50;100674.38;;;28.70;29.89
80781;BME280;70341;56.408;10.874;2023-08-30T12:44:20;100672.48;;;28.32;30.91
80781;BME280;70341;56.408;10.874;2023-08-30T12:46:49;100676.75;;;27.89;32.38
80781;BME280;70341;56.408;10.874;2023-08-30T12:49:20;100672.01;;;27.45;33.60
80781;BME280;70341;56.408;10.874;2023-08-30T12:51:49;100671.63;;;27.13;34.33
80781;BME280;70341;56.408;10.874;2023-08-30T12:54:20;100670.34;;;26.90;34.61
80781;BME280;70341;56.408;10.874;2023-08-30T12:56:49;100668.52;;;26.63;34.05
80781;BME280;70341;56.408;10.874;2023-08-30T12:59:19;100665.70;;;26.28;35.33
80781;BME280;70341;56.408;10.874;2023-08-30T13:01:48;100663.58;;;26.09;34.81
80781;BME280;70341;56.408;10.874;2023-08-30T13:04:18;100665.23;;;26.05;34.54